Sonny — WDG5366 — position and weather

sailwx.info

Track history (hours):
 
Tides and Currents Weather Stations Pressure Air Temp Water Temp Dewpoint Dewpoint Depression Visibility Wind Speed Wind Dir Waves Ship Positions

Sonny

Owner: Biscayne Towing & Salvage, Inc., Miami, FL. More information available from US FCC via Universal Licensing System and Coast Guard Vessel Documentation Center.

Last reported at 2017-Oct-18 20:09 UTC. Time now 2017-Oct-19 05:34 UTC.
Position N 25°47' W 080°12'.

; draft 2.5 m.

Type: Towing. MMSI: 366931000.

Date/timePositionNaut miles runAvg speedWind from/ knotsBaromVisibWave heightAir tempDewpointWater temp
2017-Oct-18 20:09N 25°47' W 080°12'0 1.4
2017-Oct-18 20:00N 25°46' W 080°12'2 4.0
2017-Oct-18 19:29N 25°46' W 080°10'3 5.8
2017-Oct-18 19:00N 25°46' W 080°07'1 1.7
2017-Oct-18 18:30N 25°46' W 080°07'2 4.2
2017-Oct-18 18:00N 25°46' W 080°10'0 0.0
2017-Oct-18 17:31N 25°46' W 080°10'0 0.0
2017-Oct-18 17:00N 25°46' W 080°10'0 0.0
2017-Oct-18 16:30N 25°46' W 080°10'0 0.0
2017-Oct-18 16:00N 25°46' W 080°10'2 3.4
2017-Oct-18 15:30N 25°46' W 080°08'0 0.2
2017-Oct-18 15:00N 25°46' W 080°08'2 1.8
2017-Oct-18 14:00N 25°46' W 080°10'0 0.0
2017-Oct-18 13:30N 25°46' W 080°10'0 0.0
2017-Oct-18 13:01N 25°46' W 080°10'0 0.0
2017-Oct-18 12:31N 25°46' W 080°10'0 0.0
2017-Oct-18 12:01N 25°46' W 080°10'2 3.8
2017-Oct-18 11:31N 25°46' W 080°12'1 1.1
2017-Oct-18 11:01N 25°47' W 080°12'0 0.0
2017-Oct-17 23:23N 25°47' W 080°12'1 2.5
2017-Oct-17 23:01N 25°46' W 080°11'1 3.0
2017-Oct-17 22:30N 25°46' W 080°10'3 5.8
2017-Oct-17 22:00N 25°46' W 080°06'0 0.3
2017-Oct-17 21:31N 25°46' W 080°07'0 0.2
2017-Oct-17 21:00N 25°46' W 080°06'0 0.5
2017-Oct-17 20:30N 25°46' W 080°06'0 0.0
2017-Oct-17 20:01N 25°46' W 080°06'0 0.0
2017-Oct-17 19:30N 25°46' W 080°06'0 0.0
2017-Oct-17 19:01N 25°46' W 080°06'0 0.0
2017-Oct-17 18:29N 25°46' W 080°06'0 0.0
2017-Oct-17 18:00N 25°46' W 080°06'0 0.0
2017-Oct-17 17:31N 25°46' W 080°06'0 0.0
2017-Oct-17 17:00N 25°46' W 080°06'0 0.1
2017-Oct-17 16:30N 25°46' W 080°06'1 1.0
2017-Oct-17 16:00N 25°46' W 080°07'0 0.6
2017-Oct-17 15:30N 25°46' W 080°06'0 0.0
2017-Oct-17 15:00N 25°46' W 080°06'0 0.2
2017-Oct-17 14:30N 25°46' W 080°06'3 2.9
2017-Oct-17 13:30N 25°46' W 080°10'0 0.0
2017-Oct-17 13:00N 25°46' W 080°10'0 0.0
2017-Oct-17 12:30N 25°46' W 080°10'0 0.0
2017-Oct-17 12:00N 25°46' W 080°10'2 4.0
2017-Oct-17 11:31N 25°46' W 080°12'1 1.0
2017-Oct-17 11:00N 25°47' W 080°12'0 0.0
2017-Oct-16 23:30N 25°47' W 080°12'1 2.2
2017-Oct-16 23:00N 25°47' W 080°11'2 3.1
2017-Oct-16 22:30N 25°46' W 080°09'3 5.2
2017-Oct-16 22:00N 25°46' W 080°06'0 0.4
2017-Oct-16 21:29N 25°46' W 080°07'0 0.1
2017-Oct-16 21:00N 25°46' W 080°07'0 0.1
2017-Oct-16 20:30N 25°46' W 080°07'0 0.5
2017-Oct-16 20:00N 25°46' W 080°07'0 0.6
2017-Oct-16 19:29N 25°46' W 080°06'0 0.5
2017-Oct-16 19:00N 25°46' W 080°07'0 0.5
2017-Oct-16 18:30N 25°46' W 080°06'0 0.2
2017-Oct-16 17:59N 25°46' W 080°07'0 0.3
2017-Oct-16 17:31N 25°46' W 080°06'0 0.6
2017-Oct-16 17:00N 25°46' W 080°07'0 0.4
2017-Oct-16 16:31N 25°46' W 080°06'0 0.3
2017-Oct-16 16:00N 25°46' W 080°06'0 0.1
2017-Oct-16 15:30N 25°46' W 080°06'0 0.2
2017-Oct-16 15:01N 25°46' W 080°06'0 0.2
2017-Oct-16 14:31N 25°46' W 080°06'0 0.0
2017-Oct-16 13:30N 25°46' W 080°06'0 0.0
2017-Oct-16 12:58N 25°46' W 080°06'1 1.4
2017-Oct-16 12:31N 25°46' W 080°07'3 5.0
2017-Oct-16 12:01N 25°46' W 080°10'0 0.1
2017-Oct-16 11:31N 25°46' W 080°10'0 0.0
2017-Oct-16 11:01N 25°46' W 080°10'1 1.5
2017-Oct-16 10:30N 25°46' W 080°09'3 5.8
2017-Oct-16 10:00N 25°47' W 080°12'0 0.0
2017-Oct-15 00:33N 25°47' W 080°12'0 0.1
2017-Oct-15 00:30N 25°47' W 080°12'0 0.0
2017-Oct-15 00:00N 25°47' W 080°12'0 0.0
2017-Oct-14 23:30N 25°47' W 080°12'0 0.0
2017-Oct-14 22:59N 25°47' W 080°12'0 0.0
2017-Oct-14 22:30N 25°47' W 080°12'0 0.0
2017-Oct-14 22:00N 25°47' W 080°12'0 0.0
2017-Oct-14 21:30N 25°47' W 080°12'0 0.0
2017-Oct-14 21:00N 25°47' W 080°12'0 0.0
2017-Oct-14 20:30N 25°47' W 080°12'0 0.0
2017-Oct-14 20:00N 25°47' W 080°12'0 0.0
2017-Oct-14 19:30N 25°47' W 080°12'0 0.0
2017-Oct-14 19:00N 25°47' W 080°12'0 0.0
2017-Oct-14 18:30N 25°47' W 080°12'0 0.0
2017-Oct-14 18:00N 25°47' W 080°12'0 0.0
2017-Oct-14 17:30N 25°47' W 080°12'0 0.0
2017-Oct-14 17:01N 25°47' W 080°12'0 0.0
2017-Oct-14 16:30N 25°47' W 080°12'0 0.0
2017-Oct-14 16:00N 25°47' W 080°12'0 0.0
2017-Oct-14 15:31N 25°47' W 080°12'0 0.0
2017-Oct-14 15:00N 25°47' W 080°12'0 0.0
2017-Oct-14 14:30N 25°47' W 080°12'0 0.0
2017-Oct-14 14:00N 25°47' W 080°12'0 0.0
2017-Oct-14 13:30N 25°47' W 080°12'2 3.7
2017-Oct-14 13:00N 25°46' W 080°10'1 1.0
2017-Oct-14 12:30N 25°46' W 080°10'0 0.0
2017-Oct-14 12:00N 25°46' W 080°10'0 0.0
2017-Oct-14 11:30N 25°46' W 080°10'0 0.0
2017-Oct-14 11:00N 25°46' W 080°10'1 1.2
2017-Oct-14 10:31N 25°46' W 080°10'2 3.4
2017-Oct-14 10:00N 25°47' W 080°12'0 0.0
2017-Oct-13 18:01N 25°47' W 080°12'0 0.0
2017-Oct-13 18:00N 25°47' W 080°12'2 3.7
2017-Oct-13 17:30N 25°46' W 080°10'1 1.0
2017-Oct-13 17:00N 25°46' W 080°10'1 1.7
2017-Oct-13 16:30N 25°46' W 080°09'0 0.0
2017-Oct-13 16:00N 25°46' W 080°09'0 0.0
2017-Oct-13 15:30N 25°46' W 080°09'1 1.8
2017-Oct-13 15:01N 25°46' W 080°10'0 0.1
2017-Oct-13 14:30N 25°46' W 080°10'0 0.2
2017-Oct-13 14:00N 25°46' W 080°10'2 3.2
2017-Oct-13 13:31N 25°46' W 080°11'1 1.7
2017-Oct-13 13:00N 25°47' W 080°12'  
2017-Oct-09 20:58N 25°47' W 080°12'1 2.3
2017-Oct-09 20:30N 25°46' W 080°11'1 2.5
2017-Oct-09 20:00N 25°46' W 080°10'1 2.4
2017-Oct-09 19:30N 25°46' W 080°08'2 3.8
2017-Oct-09 19:00N 25°46' W 080°06'0 0.1
2017-Oct-09 18:30N 25°46' W 080°06'0 0.0
2017-Oct-09 18:00N 25°46' W 080°06'0 0.0
2017-Oct-09 17:30N 25°46' W 080°06'0 0.0
2017-Oct-09 17:00N 25°46' W 080°06'0 0.0
2017-Oct-09 16:30N 25°46' W 080°06'0 0.0
2017-Oct-09 15:59N 25°46' W 080°06'0 0.0
2017-Oct-09 15:30N 25°46' W 080°06'0 0.1
2017-Oct-09 15:00N 25°46' W 080°06'0 0.2
2017-Oct-09 14:30N 25°46' W 080°07'0 0.2
2017-Oct-09 13:59N 25°46' W 080°06'0 0.1
2017-Oct-09 13:30N 25°46' W 080°06'0 0.0
2017-Oct-09 13:00N 25°46' W 080°06'0 0.0
2017-Oct-09 12:30N 25°46' W 080°06'1 2.3
2017-Oct-09 12:00N 25°46' W 080°07'2 4.5
2017-Oct-09 11:31N 25°46' W 080°10'0 0.1
2017-Oct-09 11:00N 25°46' W 080°10'0 1.0
2017-Oct-09 10:30N 25°46' W 080°09'3 0.2
2017-Oct-08 22:51N 25°47' W 080°12'1 2.5
2017-Oct-08 22:29N 25°46' W 080°11'1 3.0
2017-Oct-08 22:00N 25°46' W 080°10'2 3.9
2017-Oct-08 21:30N 25°46' W 080°08'1 2.5
2017-Oct-08 21:00N 25°46' W 080°06'0 0.0
2017-Oct-08 20:30N 25°46' W 080°06'  
Track history (hours):
 
Tides and Currents Weather Stations Pressure Air Temp Water Temp Dewpoint Dewpoint Depression Visibility Wind Speed Wind Dir Waves Ship Positions

Sonny

Owner: Biscayne Towing & Salvage, Inc., Miami, FL. More information available from US FCC via Universal Licensing System and Coast Guard Vessel Documentation Center.

Last reported at 2017-Oct-18 20:09 UTC. Time now 2017-Oct-19 05:34 UTC.
Position N 25°47' W 080°12'.

; draft 2.5 m.

Type: Towing. MMSI: 366931000.

Date/timePositionNaut miles runAvg speedWind from/ knotsBaromVisibWave heightAir tempDewpointWater temp
2017-Oct-18 20:09N 25°47' W 080°12'0 1.4
2017-Oct-18 20:00N 25°46' W 080°12'2 4.0
2017-Oct-18 19:29N 25°46' W 080°10'3 5.8
2017-Oct-18 19:00N 25°46' W 080°07'1 1.7
2017-Oct-18 18:30N 25°46' W 080°07'2 4.2
2017-Oct-18 18:00N 25°46' W 080°10'0 0.0
2017-Oct-18 17:31N 25°46' W 080°10'0 0.0
2017-Oct-18 17:00N 25°46' W 080°10'0 0.0
2017-Oct-18 16:30N 25°46' W 080°10'0 0.0
2017-Oct-18 16:00N 25°46' W 080°10'2 3.4
2017-Oct-18 15:30N 25°46' W 080°08'0 0.2
2017-Oct-18 15:00N 25°46' W 080°08'2 1.8
2017-Oct-18 14:00N 25°46' W 080°10'0 0.0
2017-Oct-18 13:30N 25°46' W 080°10'0 0.0
2017-Oct-18 13:01N 25°46' W 080°10'0 0.0
2017-Oct-18 12:31N 25°46' W 080°10'0 0.0
2017-Oct-18 12:01N 25°46' W 080°10'2 3.8
2017-Oct-18 11:31N 25°46' W 080°12'1 1.1
2017-Oct-18 11:01N 25°47' W 080°12'0 0.0
2017-Oct-17 23:23N 25°47' W 080°12'1 2.5
2017-Oct-17 23:01N 25°46' W 080°11'1 3.0
2017-Oct-17 22:30N 25°46' W 080°10'3 5.8
2017-Oct-17 22:00N 25°46' W 080°06'0 0.3
2017-Oct-17 21:31N 25°46' W 080°07'0 0.2
2017-Oct-17 21:00N 25°46' W 080°06'0 0.5
2017-Oct-17 20:30N 25°46' W 080°06'0 0.0
2017-Oct-17 20:01N 25°46' W 080°06'0 0.0
2017-Oct-17 19:30N 25°46' W 080°06'0 0.0
2017-Oct-17 19:01N 25°46' W 080°06'0 0.0
2017-Oct-17 18:29N 25°46' W 080°06'0 0.0
2017-Oct-17 18:00N 25°46' W 080°06'0 0.0
2017-Oct-17 17:31N 25°46' W 080°06'0 0.0
2017-Oct-17 17:00N 25°46' W 080°06'0 0.1
2017-Oct-17 16:30N 25°46' W 080°06'1 1.0
2017-Oct-17 16:00N 25°46' W 080°07'0 0.6
2017-Oct-17 15:30N 25°46' W 080°06'0 0.0
2017-Oct-17 15:00N 25°46' W 080°06'0 0.2
2017-Oct-17 14:30N 25°46' W 080°06'3 2.9
2017-Oct-17 13:30N 25°46' W 080°10'0 0.0
2017-Oct-17 13:00N 25°46' W 080°10'0 0.0
2017-Oct-17 12:30N 25°46' W 080°10'0 0.0
2017-Oct-17 12:00N 25°46' W 080°10'2 4.0
2017-Oct-17 11:31N 25°46' W 080°12'1 1.0
2017-Oct-17 11:00N 25°47' W 080°12'0 0.0
2017-Oct-16 23:30N 25°47' W 080°12'1 2.2
2017-Oct-16 23:00N 25°47' W 080°11'2 3.1
2017-Oct-16 22:30N 25°46' W 080°09'3 5.2
2017-Oct-16 22:00N 25°46' W 080°06'0 0.4
2017-Oct-16 21:29N 25°46' W 080°07'0 0.1
2017-Oct-16 21:00N 25°46' W 080°07'0 0.1
2017-Oct-16 20:30N 25°46' W 080°07'0 0.5
2017-Oct-16 20:00N 25°46' W 080°07'0 0.6
2017-Oct-16 19:29N 25°46' W 080°06'0 0.5
2017-Oct-16 19:00N 25°46' W 080°07'0 0.5
2017-Oct-16 18:30N 25°46' W 080°06'0 0.2
2017-Oct-16 17:59N 25°46' W 080°07'0 0.3
2017-Oct-16 17:31N 25°46' W 080°06'0 0.6
2017-Oct-16 17:00N 25°46' W 080°07'0 0.4
2017-Oct-16 16:31N 25°46' W 080°06'0 0.3
2017-Oct-16 16:00N 25°46' W 080°06'0 0.1
2017-Oct-16 15:30N 25°46' W 080°06'0 0.2
2017-Oct-16 15:01N 25°46' W 080°06'0 0.2
2017-Oct-16 14:31N 25°46' W 080°06'0 0.0
2017-Oct-16 13:30N 25°46' W 080°06'0 0.0
2017-Oct-16 12:58N 25°46' W 080°06'1 1.4
2017-Oct-16 12:31N 25°46' W 080°07'3 5.0
2017-Oct-16 12:01N 25°46' W 080°10'0 0.1
2017-Oct-16 11:31N 25°46' W 080°10'0 0.0
2017-Oct-16 11:01N 25°46' W 080°10'1 1.5
2017-Oct-16 10:30N 25°46' W 080°09'3 5.8
2017-Oct-16 10:00N 25°47' W 080°12'0 0.0
2017-Oct-15 00:33N 25°47' W 080°12'0 0.1
2017-Oct-15 00:30N 25°47' W 080°12'0 0.0
2017-Oct-15 00:00N 25°47' W 080°12'0 0.0
2017-Oct-14 23:30N 25°47' W 080°12'0 0.0
2017-Oct-14 22:59N 25°47' W 080°12'0 0.0
2017-Oct-14 22:30N 25°47' W 080°12'0 0.0
2017-Oct-14 22:00N 25°47' W 080°12'0 0.0
2017-Oct-14 21:30N 25°47' W 080°12'0 0.0
2017-Oct-14 21:00N 25°47' W 080°12'0 0.0
2017-Oct-14 20:30N 25°47' W 080°12'0 0.0
2017-Oct-14 20:00N 25°47' W 080°12'0 0.0
2017-Oct-14 19:30N 25°47' W 080°12'0 0.0
2017-Oct-14 19:00N 25°47' W 080°12'0 0.0
2017-Oct-14 18:30N 25°47' W 080°12'0 0.0
2017-Oct-14 18:00N 25°47' W 080°12'0 0.0
2017-Oct-14 17:30N 25°47' W 080°12'0 0.0
2017-Oct-14 17:01N 25°47' W 080°12'0 0.0
2017-Oct-14 16:30N 25°47' W 080°12'0 0.0
2017-Oct-14 16:00N 25°47' W 080°12'0 0.0
2017-Oct-14 15:31N 25°47' W 080°12'0 0.0
2017-Oct-14 15:00N 25°47' W 080°12'0 0.0
2017-Oct-14 14:30N 25°47' W 080°12'0 0.0
2017-Oct-14 14:00N 25°47' W 080°12'0 0.0
2017-Oct-14 13:30N 25°47' W 080°12'2 3.7
2017-Oct-14 13:00N 25°46' W 080°10'1 1.0
2017-Oct-14 12:30N 25°46' W 080°10'0 0.0
2017-Oct-14 12:00N 25°46' W 080°10'0 0.0
2017-Oct-14 11:30N 25°46' W 080°10'0 0.0
2017-Oct-14 11:00N 25°46' W 080°10'1 1.2
2017-Oct-14 10:31N 25°46' W 080°10'2 3.4
2017-Oct-14 10:00N 25°47' W 080°12'0 0.0
2017-Oct-13 18:01N 25°47' W 080°12'0 0.0
2017-Oct-13 18:00N 25°47' W 080°12'2 3.7
2017-Oct-13 17:30N 25°46' W 080°10'1 1.0
2017-Oct-13 17:00N 25°46' W 080°10'1 1.7
2017-Oct-13 16:30N 25°46' W 080°09'0 0.0
2017-Oct-13 16:00N 25°46' W 080°09'0 0.0
2017-Oct-13 15:30N 25°46' W 080°09'1 1.8
2017-Oct-13 15:01N 25°46' W 080°10'0 0.1
2017-Oct-13 14:30N 25°46' W 080°10'0 0.2
2017-Oct-13 14:00N 25°46' W 080°10'2 3.2
2017-Oct-13 13:31N 25°46' W 080°11'1 1.7
2017-Oct-13 13:00N 25°47' W 080°12'  
2017-Oct-09 20:58N 25°47' W 080°12'1 2.3
2017-Oct-09 20:30N 25°46' W 080°11'1 2.5
2017-Oct-09 20:00N 25°46' W 080°10'1 2.4
2017-Oct-09 19:30N 25°46' W 080°08'2 3.8
2017-Oct-09 19:00N 25°46' W 080°06'0 0.1
2017-Oct-09 18:30N 25°46' W 080°06'0 0.0
2017-Oct-09 18:00N 25°46' W 080°06'0 0.0
2017-Oct-09 17:30N 25°46' W 080°06'0 0.0
2017-Oct-09 17:00N 25°46' W 080°06'0 0.0
2017-Oct-09 16:30N 25°46' W 080°06'0 0.0
2017-Oct-09 15:59N 25°46' W 080°06'0 0.0
2017-Oct-09 15:30N 25°46' W 080°06'0 0.1
2017-Oct-09 15:00N 25°46' W 080°06'0 0.2
2017-Oct-09 14:30N 25°46' W 080°07'0 0.2
2017-Oct-09 13:59N 25°46' W 080°06'0 0.1
2017-Oct-09 13:30N 25°46' W 080°06'0 0.0
2017-Oct-09 13:00N 25°46' W 080°06'0 0.0
2017-Oct-09 12:30N 25°46' W 080°06'1 2.3
2017-Oct-09 12:00N 25°46' W 080°07'2 4.5
2017-Oct-09 11:31N 25°46' W 080°10'0 0.1
2017-Oct-09 11:00N 25°46' W 080°10'0 1.0
2017-Oct-09 10:30N 25°46' W 080°09'3 0.2
2017-Oct-08 22:51N 25°47' W 080°12'1 2.5
2017-Oct-08 22:29N 25°46' W 080°11'1 3.0
2017-Oct-08 22:00N 25°46' W 080°10'2 3.9
2017-Oct-08 21:30N 25°46' W 080°08'1 2.5
2017-Oct-08 21:00N 25°46' W 080°06'0 0.0
2017-Oct-08 20:30N 25°46' W 080°06'  

Dump ship's entire track history